createdAt,value
2022-09-29T00:00:11.000Z,279.77
2022-09-29T00:01:37.000Z,279.77
2022-09-29T00:03:43.000Z,279.77
2022-09-29T00:05:10.000Z,279.84
2022-09-29T00:07:16.000Z,279.84
2022-09-29T00:08:42.000Z,279.84
2022-09-29T00:10:49.000Z,279.84
2022-09-29T00:12:15.000Z,279.9
2022-09-29T00:14:21.000Z,279.9
2022-09-29T00:15:48.000Z,279.9
2022-09-29T00:17:54.000Z,279.9
2022-09-29T00:19:38.000Z,279.9
2022-09-29T00:21:44.000Z,279.84
2022-09-29T00:23:11.000Z,279.77
2022-09-29T00:25:17.000Z,279.77
2022-09-29T00:28:08.000Z,279.77
2022-09-29T00:29:35.000Z,279.71
2022-09-29T00:31:41.000Z,279.71
2022-09-29T00:33:07.000Z,279.71
2022-09-29T00:35:13.000Z,279.71
2022-09-29T00:36:40.000Z,279.65
2022-09-29T00:38:46.000Z,279.65
2022-09-29T00:40:13.000Z,279.65
2022-09-29T00:42:19.000Z,279.65
2022-09-29T00:43:45.000Z,279.65
2022-09-29T00:45:51.000Z,279.59
2022-09-29T00:47:18.000Z,279.52
2022-09-29T00:49:24.000Z,279.52
2022-09-29T00:50:50.000Z,279.52
2022-09-29T00:52:57.000Z,279.59
2022-09-29T00:54:23.000Z,279.59
2022-09-29T00:56:29.000Z,279.59
2022-09-29T00:57:56.000Z,279.59
2022-09-29T01:00:02.000Z,279.52
2022-09-29T01:01:28.000Z,279.52
2022-09-29T01:03:35.000Z,279.52
2022-09-29T01:06:26.000Z,279.46
2022-09-29T01:07:53.000Z,279.52
2022-09-29T01:09:59.000Z,279.52
2022-09-29T01:11:25.000Z,279.52
2022-09-29T01:13:31.000Z,279.52
2022-09-29T01:14:58.000Z,279.52
2022-09-29T01:17:04.000Z,279.46
2022-09-29T01:18:30.000Z,279.46
2022-09-29T01:20:36.000Z,279.4
2022-09-29T01:22:03.000Z,279.4
2022-09-29T01:24:09.000Z,279.46
2022-09-29T01:25:36.000Z,279.46
2022-09-29T01:27:42.000Z,279.34
2022-09-29T01:29:08.000Z,279.27
2022-09-29T01:31:14.000Z,279.21
2022-09-29T01:32:41.000Z,279.15
2022-09-29T01:34:47.000Z,279.15
2022-09-29T01:36:14.000Z,279.15
2022-09-29T01:38:20.000Z,279.02
2022-09-29T01:39:46.000Z,278.96
2022-09-29T01:41:52.000Z,278.96
2022-09-29T01:44:43.000Z,278.9
2022-09-29T01:46:10.000Z,278.9
2022-09-29T01:48:16.000Z,278.9
2022-09-29T01:49:43.000Z,278.9
2022-09-29T01:51:49.000Z,278.84
2022-09-29T01:53:15.000Z,278.84
2022-09-29T01:55:21.000Z,278.84
2022-09-29T01:56:48.000Z,278.77
2022-09-29T01:58:54.000Z,278.65
2022-09-29T02:00:20.000Z,278.65
2022-09-29T02:02:27.000Z,278.59
2022-09-29T02:03:53.000Z,278.59
2022-09-29T02:05:59.000Z,278.52
2022-09-29T02:07:26.000Z,278.46
2022-09-29T02:09:32.000Z,278.52
2022-09-29T02:10:58.000Z,278.52
2022-09-29T02:13:05.000Z,278.46
2022-09-29T02:14:31.000Z,278.46
2022-09-29T02:16:37.000Z,278.4
2022-09-29T02:18:04.000Z,278.4
2022-09-29T02:20:10.000Z,278.4
2022-09-29T02:23:01.000Z,278.27
2022-09-29T02:24:28.000Z,278.34
2022-09-29T02:26:34.000Z,278.4
2022-09-29T02:28:00.000Z,278.4
2022-09-29T02:30:06.000Z,278.4
2022-09-29T02:31:33.000Z,278.4
2022-09-29T02:33:39.000Z,278.4
2022-09-29T02:35:06.000Z,278.34
2022-09-29T02:37:12.000Z,278.34
2022-09-29T02:38:38.000Z,278.4
2022-09-29T02:40:44.000Z,278.4
2022-09-29T02:42:11.000Z,278.46
2022-09-29T02:44:17.000Z,278.4
2022-09-29T02:45:44.000Z,278.27
2022-09-29T02:47:50.000Z,278.27
2022-09-29T02:49:17.000Z,278.27
2022-09-29T02:51:23.000Z,278.21
2022-09-29T02:52:49.000Z,278.21
2022-09-29T02:54:56.000Z,278.21
2022-09-29T02:56:22.000Z,278.27
2022-09-29T02:58:28.000Z,278.27
2022-09-29T03:01:19.000Z,278.34
2022-09-29T03:02:46.000Z,278.34
2022-09-29T03:04:52.000Z,278.34
2022-09-29T03:06:18.000Z,278.4
2022-09-29T03:08:24.000Z,278.4
2022-09-29T03:09:51.000Z,278.4
2022-09-29T03:11:57.000Z,278.34
2022-09-29T03:13:24.000Z,278.34
2022-09-29T03:15:30.000Z,278.34
2022-09-29T03:16:56.000Z,278.34
2022-09-29T03:19:02.000Z,278.34
2022-09-29T03:20:29.000Z,278.34
2022-09-29T03:22:35.000Z,278.34
2022-09-29T03:24:01.000Z,278.4
2022-09-29T03:26:07.000Z,278.4
2022-09-29T03:27:34.000Z,278.4
2022-09-29T03:29:40.000Z,278.34
2022-09-29T03:31:06.000Z,278.27
2022-09-29T03:33:13.000Z,278.27
2022-09-29T03:34:39.000Z,278.27
2022-09-29T03:36:45.000Z,278.27
2022-09-29T03:39:36.000Z,278.34
2022-09-29T03:41:03.000Z,278.4
2022-09-29T03:43:09.000Z,278.34
2022-09-29T03:44:35.000Z,278.4
2022-09-29T03:46:42.000Z,278.4
2022-09-29T03:48:08.000Z,278.4
2022-09-29T03:50:14.000Z,278.34
2022-09-29T03:51:41.000Z,278.27
2022-09-29T03:53:47.000Z,278.27
2022-09-29T03:55:13.000Z,278.27
2022-09-29T03:57:19.000Z,278.27
2022-09-29T03:58:46.000Z,278.4
2022-09-29T04:00:54.000Z,278.4
2022-09-29T04:02:20.000Z,278.46
2022-09-29T04:04:27.000Z,278.46
2022-09-29T04:05:53.000Z,278.46
2022-09-29T04:07:59.000Z,278.4
2022-09-29T04:09:26.000Z,278.46
2022-09-29T04:11:32.000Z,278.46
2022-09-29T04:12:58.000Z,278.52
2022-09-29T04:15:05.000Z,278.52
2022-09-29T04:17:56.000Z,278.52
2022-09-29T04:19:22.000Z,278.52
2022-09-29T04:21:28.000Z,278.52
2022-09-29T04:22:55.000Z,278.52
2022-09-29T04:25:01.000Z,278.52
2022-09-29T04:26:27.000Z,278.52
2022-09-29T04:28:34.000Z,278.52
2022-09-29T04:30:00.000Z,278.52
2022-09-29T04:32:06.000Z,278.52
2022-09-29T04:33:33.000Z,278.52
2022-09-29T04:35:39.000Z,278.52
2022-09-29T04:37:05.000Z,278.59
2022-09-29T04:39:11.000Z,278.59
2022-09-29T04:40:38.000Z,278.59
2022-09-29T04:42:44.000Z,278.71
2022-09-29T04:44:11.000Z,278.71
2022-09-29T04:46:17.000Z,278.71
2022-09-29T04:47:44.000Z,278.71
2022-09-29T04:49:50.000Z,278.71
2022-09-29T04:51:16.000Z,278.65
2022-09-29T04:53:22.000Z,278.65
2022-09-29T04:56:13.000Z,278.65
2022-09-29T04:57:40.000Z,278.65
2022-09-29T04:59:46.000Z,278.59
2022-09-29T05:01:13.000Z,278.65
2022-09-29T05:03:19.000Z,278.71
2022-09-29T05:04:46.000Z,278.71
2022-09-29T05:06:52.000Z,278.65
2022-09-29T05:08:18.000Z,278.65
2022-09-29T05:10:24.000Z,278.59
2022-09-29T05:11:51.000Z,278.59
2022-09-29T05:13:57.000Z,278.59
2022-09-29T05:15:23.000Z,278.59
2022-09-29T05:17:30.000Z,278.59
2022-09-29T05:18:56.000Z,278.65
2022-09-29T05:21:02.000Z,278.65
2022-09-29T05:22:51.000Z,278.71
2022-09-29T05:24:57.000Z,278.65
2022-09-29T05:26:23.000Z,278.71
2022-09-29T05:28:30.000Z,278.65
2022-09-29T05:29:56.000Z,278.65
2022-09-29T05:32:02.000Z,278.65
2022-09-29T05:34:54.000Z,278.59
2022-09-29T05:36:20.000Z,278.59
2022-09-29T05:38:26.000Z,278.59
2022-09-29T05:39:53.000Z,278.59
2022-09-29T05:41:59.000Z,278.59
2022-09-29T05:43:25.000Z,278.59
2022-09-29T05:45:31.000Z,278.65
2022-09-29T05:46:58.000Z,278.65
2022-09-29T05:49:04.000Z,278.71
2022-09-29T05:50:31.000Z,278.71
2022-09-29T05:52:37.000Z,278.71
2022-09-29T05:54:03.000Z,278.77
2022-09-29T05:56:09.000Z,278.77
2022-09-29T05:57:36.000Z,278.84
2022-09-29T05:59:42.000Z,278.84
2022-09-29T06:01:09.000Z,278.84
2022-09-29T06:03:15.000Z,278.71
2022-09-29T06:04:41.000Z,278.71
2022-09-29T06:06:48.000Z,278.77
2022-09-29T06:08:14.000Z,278.77
2022-09-29T06:10:20.000Z,278.71
2022-09-29T06:13:11.000Z,278.77
2022-09-29T06:14:38.000Z,278.84
2022-09-29T06:16:44.000Z,278.84
2022-09-29T06:18:11.000Z,278.9
2022-09-29T06:20:17.000Z,278.96
2022-09-29T06:21:43.000Z,279.02
2022-09-29T06:23:49.000Z,279.02
2022-09-29T06:25:16.000Z,279.09
2022-09-29T06:27:22.000Z,279.15
2022-09-29T06:28:48.000Z,279.15
2022-09-29T06:30:54.000Z,279.15
2022-09-29T06:32:21.000Z,279.15
2022-09-29T06:34:27.000Z,279.21
2022-09-29T06:35:53.000Z,279.21
2022-09-29T06:38:00.000Z,279.21
2022-09-29T06:39:26.000Z,279.27
2022-09-29T06:41:32.000Z,279.27
2022-09-29T06:42:59.000Z,279.21
2022-09-29T06:45:05.000Z,279.27
2022-09-29T06:46:31.000Z,279.27
2022-09-29T06:48:37.000Z,279.27
2022-09-29T06:51:28.000Z,279.27
2022-09-29T06:53:07.000Z,279.34
2022-09-29T06:55:13.000Z,279.27
2022-09-29T06:56:40.000Z,279.34
2022-09-29T06:58:46.000Z,279.46
2022-09-29T07:00:12.000Z,279.46
2022-09-29T07:02:18.000Z,279.65
2022-09-29T07:03:45.000Z,279.71
2022-09-29T07:05:51.000Z,279.9
2022-09-29T07:07:43.000Z,279.84
2022-09-29T07:09:52.000Z,279.9
2022-09-29T07:11:19.000Z,279.96
2022-09-29T07:13:25.000Z,280.02
2022-09-29T07:14:51.000Z,280.09
2022-09-29T07:16:58.000Z,280.15
2022-09-29T07:18:24.000Z,280.27
2022-09-29T07:20:30.000Z,280.34
2022-09-29T07:21:57.000Z,280.4
2022-09-29T07:24:03.000Z,280.4
2022-09-29T07:25:29.000Z,280.52
2022-09-29T07:27:55.000Z,280.71
2022-09-29T07:30:47.000Z,280.84
2022-09-29T07:32:13.000Z,280.9
2022-09-29T07:34:31.000Z,280.9
2022-09-29T07:35:57.000Z,281.02
2022-09-29T07:38:04.000Z,281.09
2022-09-29T07:39:30.000Z,281.15
2022-09-29T07:41:36.000Z,281.34
2022-09-29T07:43:03.000Z,281.34
2022-09-29T07:45:09.000Z,281.34
2022-09-29T07:46:35.000Z,281.4
2022-09-29T07:48:41.000Z,281.34
2022-09-29T07:50:08.000Z,281.27
2022-09-29T07:52:14.000Z,281.4
2022-09-29T07:53:41.000Z,281.34
2022-09-29T07:55:47.000Z,281.46
2022-09-29T07:57:13.000Z,281.52
2022-09-29T07:59:19.000Z,281.59
2022-09-29T08:00:46.000Z,281.59
2022-09-29T08:02:52.000Z,281.59
2022-09-29T08:04:19.000Z,281.71
2022-09-29T08:06:25.000Z,281.84
2022-09-29T08:09:16.000Z,281.84
2022-09-29T08:10:43.000Z,281.9
2022-09-29T08:12:57.000Z,281.96
2022-09-29T08:14:23.000Z,281.96
2022-09-29T08:16:30.000Z,282.02
2022-09-29T08:17:56.000Z,282.15
2022-09-29T08:20:02.000Z,282.27
2022-09-29T08:21:29.000Z,282.4
2022-09-29T08:23:35.000Z,282.46
2022-09-29T08:25:01.000Z,282.46
2022-09-29T08:27:08.000Z,282.34
2022-09-29T08:28:43.000Z,282.34
2022-09-29T08:30:50.000Z,282.46
2022-09-29T08:32:16.000Z,282.46
2022-09-29T08:34:23.000Z,282.4
2022-09-29T08:35:49.000Z,282.59
2022-09-29T08:37:55.000Z,282.65
2022-09-29T08:39:22.000Z,282.77
2022-09-29T08:41:28.000Z,282.77
2022-09-29T08:42:54.000Z,282.77
2022-09-29T08:45:01.000Z,282.84
2022-09-29T08:48:05.000Z,282.96
2022-09-29T08:49:45.000Z,283.02
2022-09-29T08:51:51.000Z,283.02
2022-09-29T08:53:18.000Z,283.09
2022-09-29T08:55:32.000Z,283.09
2022-09-29T08:56:59.000Z,283.15
2022-09-29T08:59:05.000Z,283.27
2022-09-29T09:00:31.000Z,283.34
2022-09-29T09:02:38.000Z,283.34
2022-09-29T09:04:04.000Z,283.4
2022-09-29T09:06:10.000Z,283.34
2022-09-29T09:07:37.000Z,283.4
2022-09-29T09:09:43.000Z,283.4
2022-09-29T09:11:10.000Z,283.46
2022-09-29T09:13:16.000Z,283.34
2022-09-29T09:14:42.000Z,283.4
2022-09-29T09:16:48.000Z,283.34
2022-09-29T09:18:15.000Z,283.27
2022-09-29T09:20:21.000Z,283.4
2022-09-29T09:21:48.000Z,283.46
2022-09-29T09:23:54.000Z,283.59
2022-09-29T09:26:50.000Z,283.52
2022-09-29T09:28:16.000Z,283.52
2022-09-29T09:30:22.000Z,283.46
2022-09-29T09:31:49.000Z,283.4
2022-09-29T09:33:55.000Z,283.34
2022-09-29T09:35:30.000Z,283.34
2022-09-29T09:37:37.000Z,283.34
2022-09-29T09:39:03.000Z,283.34
2022-09-29T09:41:09.000Z,283.4
2022-09-29T09:42:36.000Z,283.4
2022-09-29T09:44:42.000Z,283.59
2022-09-29T09:46:08.000Z,283.71
2022-09-29T09:48:14.000Z,283.71
2022-09-29T09:49:47.000Z,283.65
2022-09-29T09:51:53.000Z,283.77
2022-09-29T09:53:20.000Z,283.84
2022-09-29T09:55:26.000Z,283.77
2022-09-29T09:56:52.000Z,283.71
2022-09-29T09:58:58.000Z,283.71
2022-09-29T10:00:25.000Z,283.77
2022-09-29T10:02:31.000Z,283.77
2022-09-29T10:05:22.000Z,283.77
2022-09-29T10:06:49.000Z,283.77
2022-09-29T10:08:55.000Z,283.84
2022-09-29T10:10:21.000Z,283.9
2022-09-29T10:12:27.000Z,283.9
2022-09-29T10:13:54.000Z,283.96
2022-09-29T10:16:00.000Z,283.96
2022-09-29T10:17:27.000Z,284.02
2022-09-29T10:19:33.000Z,284.02
2022-09-29T10:20:59.000Z,284.09
2022-09-29T10:23:05.000Z,284.15
2022-09-29T10:24:32.000Z,284.21
2022-09-29T10:26:38.000Z,284.21
2022-09-29T10:28:04.000Z,284.21
2022-09-29T10:30:11.000Z,284.21
2022-09-29T10:31:37.000Z,284.21
2022-09-29T10:33:43.000Z,284.21
2022-09-29T10:35:10.000Z,284.21
2022-09-29T10:37:16.000Z,284.21
2022-09-29T10:38:42.000Z,284.27
2022-09-29T10:40:48.000Z,284.21
2022-09-29T10:43:39.000Z,284.15
2022-09-29T10:45:06.000Z,284.15
2022-09-29T10:47:12.000Z,284.15
2022-09-29T10:48:39.000Z,284.15
2022-09-29T10:50:45.000Z,284.09
2022-09-29T10:52:11.000Z,284.09
2022-09-29T10:54:17.000Z,284.02
2022-09-29T10:55:44.000Z,284.09
2022-09-29T10:57:50.000Z,284.09
2022-09-29T10:59:17.000Z,284.02
2022-09-29T11:01:23.000Z,283.96
2022-09-29T11:02:49.000Z,284.02
2022-09-29T11:04:55.000Z,283.96
2022-09-29T11:06:22.000Z,283.96
2022-09-29T11:08:28.000Z,283.9
2022-09-29T11:09:55.000Z,283.84
2022-09-29T11:12:01.000Z,283.71
2022-09-29T11:13:33.000Z,283.65
2022-09-29T11:15:39.000Z,283.59
2022-09-29T11:17:06.000Z,283.46
2022-09-29T11:19:12.000Z,283.52
2022-09-29T11:22:03.000Z,283.52
2022-09-29T11:23:30.000Z,283.34
2022-09-29T11:25:36.000Z,283.21
2022-09-29T11:27:02.000Z,283.27
2022-09-29T11:29:08.000Z,283.27
2022-09-29T11:30:35.000Z,283.15
2022-09-29T11:32:41.000Z,283.15
2022-09-29T11:34:08.000Z,283.15
2022-09-29T11:36:14.000Z,283.21
2022-09-29T11:37:40.000Z,283.15
2022-09-29T11:39:46.000Z,283.15
2022-09-29T11:41:13.000Z,283.27
2022-09-29T11:43:19.000Z,283.21
2022-09-29T11:44:45.000Z,283.09
2022-09-29T11:46:51.000Z,283.21
2022-09-29T11:48:18.000Z,283.27
2022-09-29T11:50:24.000Z,283.21
2022-09-29T11:51:51.000Z,283.34
2022-09-29T11:53:57.000Z,283.46
2022-09-29T11:55:29.000Z,283.46
2022-09-29T11:57:35.000Z,283.59
2022-09-29T12:00:26.000Z,283.59
2022-09-29T12:01:53.000Z,283.59
2022-09-29T12:03:59.000Z,283.59
2022-09-29T12:05:26.000Z,283.59
2022-09-29T12:07:32.000Z,283.4
2022-09-29T12:08:58.000Z,283.4
2022-09-29T12:11:05.000Z,283.59
2022-09-29T12:13:06.000Z,283.52
2022-09-29T12:15:12.000Z,283.52
2022-09-29T12:16:39.000Z,283.46
2022-09-29T12:18:45.000Z,283.4
2022-09-29T12:20:11.000Z,283.4
2022-09-29T12:22:17.000Z,283.4
2022-09-29T12:23:44.000Z,283.46
2022-09-29T12:25:50.000Z,283.52
2022-09-29T12:27:17.000Z,283.52
2022-09-29T12:29:23.000Z,283.59
2022-09-29T12:30:49.000Z,283.52
2022-09-29T12:32:56.000Z,283.52
2022-09-29T12:34:22.000Z,283.59
2022-09-29T12:36:28.000Z,283.52
2022-09-29T12:39:19.000Z,283.52
2022-09-29T12:40:46.000Z,283.52
2022-09-29T12:42:52.000Z,283.65
2022-09-29T12:44:19.000Z,283.65
2022-09-29T12:46:25.000Z,283.59
2022-09-29T12:47:52.000Z,283.52
2022-09-29T12:49:58.000Z,283.52
2022-09-29T12:51:24.000Z,283.59
2022-09-29T12:53:30.000Z,283.65
2022-09-29T12:54:57.000Z,283.65
2022-09-29T12:57:03.000Z,283.65
2022-09-29T12:58:29.000Z,283.65
2022-09-29T13:00:36.000Z,283.77
2022-09-29T13:02:02.000Z,283.71
2022-09-29T13:04:08.000Z,283.77
2022-09-29T13:05:40.000Z,283.84
2022-09-29T13:07:46.000Z,283.9
2022-09-29T13:09:12.000Z,283.84
2022-09-29T13:11:18.000Z,283.84
2022-09-29T13:12:45.000Z,283.84
2022-09-29T13:14:51.000Z,283.9
2022-09-29T13:17:42.000Z,283.96
2022-09-29T13:19:13.000Z,283.96
2022-09-29T13:21:33.000Z,283.96
2022-09-29T13:23:00.000Z,284.02
2022-09-29T13:25:06.000Z,284.02
2022-09-29T13:26:32.000Z,283.96
2022-09-29T13:28:38.000Z,284.02
2022-09-29T13:30:05.000Z,284.02
2022-09-29T13:32:11.000Z,284.09
2022-09-29T13:33:38.000Z,284.15
2022-09-29T13:35:44.000Z,284.02
2022-09-29T13:37:10.000Z,284.09
2022-09-29T13:39:16.000Z,284.02
2022-09-29T13:40:43.000Z,284.15
2022-09-29T13:42:49.000Z,284.21
2022-09-29T13:44:15.000Z,284.27
2022-09-29T13:46:22.000Z,284.34
2022-09-29T13:47:48.000Z,284.46
2022-09-29T13:49:54.000Z,284.46
2022-09-29T13:51:21.000Z,284.59
2022-09-29T13:53:27.000Z,284.71
2022-09-29T13:56:18.000Z,284.71
2022-09-29T13:57:45.000Z,284.59
2022-09-29T13:59:51.000Z,284.65
2022-09-29T14:01:17.000Z,284.65
2022-09-29T14:03:23.000Z,284.71
2022-09-29T14:04:50.000Z,284.77
2022-09-29T14:06:56.000Z,284.77
2022-09-29T14:08:22.000Z,284.77
2022-09-29T14:10:28.000Z,284.77
2022-09-29T14:11:55.000Z,284.71
2022-09-29T14:14:01.000Z,284.65
2022-09-29T14:15:28.000Z,284.65
2022-09-29T14:17:34.000Z,284.59
2022-09-29T14:19:00.000Z,284.59
2022-09-29T14:21:06.000Z,284.59
2022-09-29T14:22:33.000Z,284.71
2022-09-29T14:24:39.000Z,284.65
2022-09-29T14:26:06.000Z,284.71
2022-09-29T14:28:12.000Z,284.59
2022-09-29T14:29:38.000Z,284.59
2022-09-29T14:31:44.000Z,284.52
2022-09-29T14:34:35.000Z,284.52
2022-09-29T14:36:02.000Z,284.46
2022-09-29T14:38:08.000Z,284.34
2022-09-29T14:39:35.000Z,284.27
2022-09-29T14:41:41.000Z,284.09
2022-09-29T14:43:07.000Z,284.09
2022-09-29T14:45:13.000Z,284.02
2022-09-29T14:46:40.000Z,284.02
2022-09-29T14:48:46.000Z,284.09
2022-09-29T14:50:13.000Z,284.15
2022-09-29T14:52:19.000Z,284.15
2022-09-29T14:53:45.000Z,284.15
2022-09-29T14:55:51.000Z,284.15
2022-09-29T14:57:18.000Z,284.09
2022-09-29T14:59:24.000Z,284.02
2022-09-29T15:00:51.000Z,283.96
2022-09-29T15:02:57.000Z,283.96
2022-09-29T15:04:51.000Z,284.02
2022-09-29T15:06:57.000Z,284.09
2022-09-29T15:08:23.000Z,284.21
2022-09-29T15:10:30.000Z,284.27
2022-09-29T15:13:21.000Z,284.34
2022-09-29T15:14:47.000Z,284.34
2022-09-29T15:16:54.000Z,284.27
2022-09-29T15:18:20.000Z,284.27
2022-09-29T15:20:26.000Z,284.27
2022-09-29T15:21:53.000Z,284.27
2022-09-29T15:23:59.000Z,284.27
2022-09-29T15:25:25.000Z,284.27
2022-09-29T15:27:32.000Z,284.4
2022-09-29T15:28:58.000Z,284.46
2022-09-29T15:31:04.000Z,284.4
2022-09-29T15:32:31.000Z,284.46
2022-09-29T15:34:37.000Z,284.52
2022-09-29T15:36:03.000Z,284.52
2022-09-29T15:38:10.000Z,284.52
2022-09-29T15:39:36.000Z,284.52
2022-09-29T15:41:42.000Z,284.46
2022-09-29T15:43:09.000Z,284.52
2022-09-29T15:45:15.000Z,284.46
2022-09-29T15:46:41.000Z,284.46
2022-09-29T15:48:48.000Z,284.46
2022-09-29T15:51:39.000Z,284.4
2022-09-29T15:53:05.000Z,284.4
2022-09-29T15:55:11.000Z,284.46
2022-09-29T15:56:38.000Z,284.34
2022-09-29T15:58:44.000Z,284.27
2022-09-29T16:00:10.000Z,284.34
2022-09-29T16:02:17.000Z,284.4
2022-09-29T16:03:43.000Z,284.34
2022-09-29T16:05:49.000Z,284.21
2022-09-29T16:07:16.000Z,284.21
2022-09-29T16:09:22.000Z,284.15
2022-09-29T16:10:49.000Z,284.15
2022-09-29T16:12:55.000Z,284.09
2022-09-29T16:14:21.000Z,284.09
2022-09-29T16:16:27.000Z,284.02
2022-09-29T16:17:54.000Z,283.96
2022-09-29T16:20:00.000Z,283.96
2022-09-29T16:21:27.000Z,283.9
2022-09-29T16:23:33.000Z,283.84
2022-09-29T16:24:59.000Z,283.77
2022-09-29T16:27:05.000Z,283.71
2022-09-29T16:29:59.000Z,283.59
2022-09-29T16:31:25.000Z,283.59
2022-09-29T16:33:31.000Z,283.59
2022-09-29T16:34:58.000Z,283.59
2022-09-29T16:37:04.000Z,283.46
2022-09-29T16:38:31.000Z,283.46
2022-09-29T16:40:37.000Z,283.4
2022-09-29T16:42:03.000Z,283.34
2022-09-29T16:44:09.000Z,283.34
2022-09-29T16:45:36.000Z,283.34
2022-09-29T16:47:42.000Z,283.15
2022-09-29T16:49:09.000Z,283.09
2022-09-29T16:51:15.000Z,282.96
2022-09-29T16:53:03.000Z,282.9
2022-09-29T16:55:09.000Z,282.84
2022-09-29T16:56:36.000Z,282.84
2022-09-29T16:58:42.000Z,282.71
2022-09-29T17:00:09.000Z,282.65
2022-09-29T17:02:15.000Z,282.52
2022-09-29T17:03:41.000Z,282.4
2022-09-29T17:05:48.000Z,282.34
2022-09-29T17:08:39.000Z,282.21
2022-09-29T17:10:06.000Z,282.09
2022-09-29T17:12:12.000Z,282.02
2022-09-29T17:13:38.000Z,281.96
2022-09-29T17:15:44.000Z,281.84
2022-09-29T17:17:11.000Z,281.84
2022-09-29T17:19:17.000Z,281.77
2022-09-29T17:20:44.000Z,281.71
2022-09-29T17:22:50.000Z,281.71
2022-09-29T17:24:16.000Z,281.65
2022-09-29T17:26:23.000Z,281.46
2022-09-29T17:27:49.000Z,281.4
2022-09-29T17:29:55.000Z,281.34
2022-09-29T17:31:22.000Z,281.34
2022-09-29T17:33:28.000Z,281.21
2022-09-29T17:34:55.000Z,281.15
2022-09-29T17:37:01.000Z,281.15
2022-09-29T17:38:27.000Z,281.09
2022-09-29T17:40:33.000Z,280.96
2022-09-29T17:42:00.000Z,280.9
2022-09-29T17:44:06.000Z,280.84
2022-09-29T17:46:57.000Z,280.71
2022-09-29T17:48:41.000Z,280.65
2022-09-29T17:50:47.000Z,280.59
2022-09-29T17:52:14.000Z,280.59
2022-09-29T17:54:20.000Z,280.52
2022-09-29T17:55:47.000Z,280.52
2022-09-29T17:57:53.000Z,280.52
2022-09-29T17:59:20.000Z,280.59
2022-09-29T18:01:26.000Z,280.52
2022-09-29T18:02:52.000Z,280.46
2022-09-29T18:04:59.000Z,280.34
2022-09-29T18:06:25.000Z,280.27
2022-09-29T18:08:31.000Z,280.27
2022-09-29T18:09:58.000Z,280.27
2022-09-29T18:12:04.000Z,280.27
2022-09-29T18:13:30.000Z,280.34
2022-09-29T18:15:36.000Z,280.34
2022-09-29T18:17:03.000Z,280.27
2022-09-29T18:19:09.000Z,280.09
2022-09-29T18:20:36.000Z,280.02
2022-09-29T18:22:42.000Z,279.96
2022-09-29T18:25:33.000Z,279.77
2022-09-29T18:26:59.000Z,279.84
2022-09-29T18:29:05.000Z,279.71
2022-09-29T18:30:32.000Z,279.71
2022-09-29T18:32:38.000Z,279.65
2022-09-29T18:34:05.000Z,279.59
2022-09-29T18:36:11.000Z,279.65
2022-09-29T18:37:37.000Z,279.59
2022-09-29T18:39:43.000Z,279.65
2022-09-29T18:41:10.000Z,279.77
2022-09-29T18:43:16.000Z,279.71
2022-09-29T18:44:42.000Z,279.59
2022-09-29T18:46:48.000Z,279.59
2022-09-29T18:48:15.000Z,279.59
2022-09-29T18:50:21.000Z,279.46
2022-09-29T18:51:48.000Z,279.34
2022-09-29T18:53:54.000Z,279.27
2022-09-29T18:55:20.000Z,279.21
2022-09-29T18:57:26.000Z,279.15
2022-09-29T18:58:53.000Z,279.15
2022-09-29T19:00:59.000Z,279.15
2022-09-29T19:03:50.000Z,279.09
2022-09-29T19:05:17.000Z,279.02
2022-09-29T19:07:23.000Z,279.02
2022-09-29T19:08:49.000Z,278.96
2022-09-29T19:10:55.000Z,278.84
2022-09-29T19:12:22.000Z,278.77
2022-09-29T19:14:28.000Z,278.71
2022-09-29T19:15:54.000Z,278.71
2022-09-29T19:18:01.000Z,278.59
2022-09-29T19:19:27.000Z,278.59
2022-09-29T19:21:33.000Z,278.52
2022-09-29T19:23:00.000Z,278.52
2022-09-29T19:25:06.000Z,278.52
2022-09-29T19:26:33.000Z,278.71
2022-09-29T19:28:39.000Z,278.77
2022-09-29T19:30:05.000Z,278.77
2022-09-29T19:32:11.000Z,278.71
2022-09-29T19:33:38.000Z,278.71
2022-09-29T19:35:44.000Z,278.65
2022-09-29T19:37:10.000Z,278.52
2022-09-29T19:39:16.000Z,278.4
2022-09-29T19:42:08.000Z,278.34
2022-09-29T19:43:34.000Z,278.34
2022-09-29T19:45:40.000Z,278.21
2022-09-29T19:47:07.000Z,278.21
2022-09-29T19:49:13.000Z,278.15
2022-09-29T19:50:40.000Z,278.15
2022-09-29T19:52:46.000Z,278.09
2022-09-29T19:54:12.000Z,278.09
2022-09-29T19:56:19.000Z,278.02
2022-09-29T19:57:45.000Z,278.02
2022-09-29T19:59:52.000Z,277.96
2022-09-29T20:01:18.000Z,277.96
2022-09-29T20:03:24.000Z,277.96
2022-09-29T20:04:51.000Z,277.96
2022-09-29T20:06:57.000Z,277.96
2022-09-29T20:08:23.000Z,277.9
2022-09-29T20:10:30.000Z,277.9
2022-09-29T20:11:56.000Z,277.84
2022-09-29T20:14:02.000Z,277.84
2022-09-29T20:15:29.000Z,277.71
2022-09-29T20:17:35.000Z,277.59
2022-09-29T20:20:26.000Z,277.46
2022-09-29T20:21:52.000Z,277.46
2022-09-29T20:23:59.000Z,277.4
2022-09-29T20:25:25.000Z,277.4
2022-09-29T20:27:31.000Z,277.34
2022-09-29T20:28:58.000Z,277.34
2022-09-29T20:31:04.000Z,277.34
2022-09-29T20:32:30.000Z,277.4
2022-09-29T20:34:36.000Z,277.4
2022-09-29T20:36:03.000Z,277.34
2022-09-29T20:38:09.000Z,277.27
2022-09-29T20:39:35.000Z,277.21
2022-09-29T20:41:42.000Z,277.21
2022-09-29T20:43:08.000Z,277.21
2022-09-29T20:45:14.000Z,277.15
2022-09-29T20:46:41.000Z,277.15
2022-09-29T20:48:47.000Z,277.09
2022-09-29T20:50:13.000Z,277.09
2022-09-29T20:52:20.000Z,277.09
2022-09-29T20:53:46.000Z,277.02
2022-09-29T20:55:52.000Z,277.02
2022-09-29T20:58:43.000Z,276.96
2022-09-29T21:00:10.000Z,276.96
2022-09-29T21:02:16.000Z,276.9
2022-09-29T21:03:43.000Z,276.84
2022-09-29T21:05:49.000Z,276.84
2022-09-29T21:07:15.000Z,276.9
2022-09-29T21:09:21.000Z,276.84
2022-09-29T21:10:48.000Z,276.84
2022-09-29T21:12:54.000Z,276.77
2022-09-29T21:14:21.000Z,276.77
2022-09-29T21:16:27.000Z,276.71
2022-09-29T21:17:54.000Z,276.65
2022-09-29T21:20:00.000Z,276.65
2022-09-29T21:21:26.000Z,276.65
2022-09-29T21:23:32.000Z,276.71
2022-09-29T21:24:59.000Z,276.65
2022-09-29T21:27:05.000Z,276.65
2022-09-29T21:28:32.000Z,276.71
2022-09-29T21:30:38.000Z,276.77
2022-09-29T21:32:04.000Z,276.71
2022-09-29T21:34:10.000Z,276.65
2022-09-29T21:37:01.000Z,276.65
2022-09-29T21:38:28.000Z,276.65
2022-09-29T21:40:34.000Z,276.59
2022-09-29T21:42:00.000Z,276.52
2022-09-29T21:44:06.000Z,276.52
2022-09-29T21:45:33.000Z,276.52
2022-09-29T21:47:39.000Z,276.46
2022-09-29T21:49:06.000Z,276.4
2022-09-29T21:51:12.000Z,276.46
2022-09-29T21:52:38.000Z,276.46
2022-09-29T21:54:44.000Z,276.46
2022-09-29T21:56:11.000Z,276.46
2022-09-29T21:58:17.000Z,276.46
2022-09-29T21:59:43.000Z,276.46
2022-09-29T22:01:49.000Z,276.4
2022-09-29T22:03:17.000Z,276.46
2022-09-29T22:05:23.000Z,276.52
2022-09-29T22:06:49.000Z,276.52
2022-09-29T22:08:55.000Z,276.59
2022-09-29T22:10:22.000Z,276.65
2022-09-29T22:12:28.000Z,276.65
2022-09-29T22:15:19.000Z,276.71
2022-09-29T22:16:46.000Z,276.71
2022-09-29T22:18:52.000Z,276.77
2022-09-29T22:20:43.000Z,276.84
2022-09-29T22:22:49.000Z,276.9
2022-09-29T22:24:15.000Z,276.9
2022-09-29T22:26:21.000Z,276.77
2022-09-29T22:27:48.000Z,276.71
2022-09-29T22:29:54.000Z,276.71
2022-09-29T22:31:21.000Z,276.71
2022-09-29T22:33:27.000Z,276.77
2022-09-29T22:34:53.000Z,276.84
2022-09-29T22:36:59.000Z,276.9
2022-09-29T22:38:26.000Z,276.77
2022-09-29T22:40:32.000Z,276.65
2022-09-29T22:41:58.000Z,276.59
2022-09-29T22:44:04.000Z,276.65
2022-09-29T22:45:31.000Z,276.71
2022-09-29T22:47:37.000Z,276.77
2022-09-29T22:49:03.000Z,276.77
2022-09-29T22:51:10.000Z,276.84
2022-09-29T22:54:01.000Z,276.77
2022-09-29T22:55:27.000Z,276.71